Time;durP1;ratioP1;P1;durP2;ratioP2;P2;SDS_P1;SDS_P2;PMS_P1;PMS_P2;Temp;Humidity;BMP_temperature;BMP_pressure;BME280_temperature;BME280_humidity;BME280_pressure;Samples;Min_cycle;Max_cycle;Signal;HPM_P1;HPM_P2
2023/07/05 00:01:23;;;;;;;;;1.00;1.00;;;;;21.86;64.94;100690.56;5037037;28;45342;-73
2023/07/05 00:03:49;;;;;;;;;2.00;2.00;;;;;21.93;64.37;100700.22;5038131;28;45518;-73
2023/07/05 00:06:16;;;;;;;;;2.00;1.67;;;;;21.95;64.24;100686.91;5027347;28;45464;-73
2023/07/05 00:08:41;;;;;;;;;3.00;2.00;;;;;21.95;64.18;100694.88;5031705;28;45588;-73
2023/07/05 00:11:08;;;;;;;;;2.67;1.33;;;;;21.93;64.04;100694.03;5034241;28;45530;-73
2023/07/05 00:13:35;;;;;;;;;2.00;2.00;;;;;21.89;64.01;100689.66;5017834;28;46569;-73
2023/07/05 00:16:01;;;;;;;;;3.00;2.00;;;;;21.84;64.22;100687.94;5026762;28;45574;-73
2023/07/05 00:18:28;;;;;;;;;3.33;2.00;;;;;21.74;64.22;100690.72;5035233;28;45468;-74
2023/07/05 00:20:59;;;;;;;;;2.67;2.67;;;;;21.64;64.12;100690.84;5019769;28;45523;-74
2023/07/05 00:23:24;;;;;;;;;1.33;1.33;;;;;21.53;64.79;100690.13;5035729;28;46447;-73
2023/07/05 00:25:50;;;;;;;;;0.33;0.00;;;;;21.43;64.49;100678.72;5035658;28;45262;-73
2023/07/05 00:28:15;;;;;;;;;1.67;1.67;;;;;21.41;64.79;100680.50;5023328;28;45339;-74
2023/07/05 00:30:45;;;;;;;;;0.67;0.00;;;;;21.44;64.12;100682.25;5033935;28;45455;-73
2023/07/05 00:33:11;;;;;;;;;2.00;2.00;;;;;21.52;63.96;100682.16;5030320;28;45489;-73
2023/07/05 00:35:36;;;;;;;;;2.00;1.67;;;;;21.49;64.19;100675.13;5016473;28;45507;-73
2023/07/05 00:38:02;;;;;;;;;2.00;1.33;;;;;21.57;63.97;100672.38;5030823;28;45291;-73
2023/07/05 00:40:27;;;;;;;;;2.67;2.00;;;;;21.66;64.01;100672.22;5028441;28;45311;-73
2023/07/05 00:42:53;;;;;;;;;2.00;2.00;;;;;21.73;63.29;100684.53;5020276;28;45588;-74
2023/07/05 00:45:18;;;;;;;;;1.00;1.00;;;;;21.70;63.20;100681.91;5032786;28;45593;-74
2023/07/05 00:47:46;;;;;;;;;3.00;2.00;;;;;21.73;63.37;100681.88;5017565;28;45286;-73
2023/07/05 00:50:25;;;;;;;;;2.00;2.00;;;;;21.79;63.71;100689.78;5013321;28;45357;-73
2023/07/05 00:52:54;;;;;;;;;2.00;1.00;;;;;21.76;64.29;100678.28;5015522;28;45307;-73
2023/07/05 00:55:21;;;;;;;;;1.00;1.00;;;;;21.76;64.14;100679.16;5026139;28;45173;-73
2023/07/05 00:57:47;;;;;;;;;1.00;1.00;;;;;21.71;64.14;100669.53;5033852;28;45963;-73
2023/07/05 01:00:16;;;;;;;;;1.33;1.33;;;;;21.72;64.17;100677.44;5032217;28;45457;-73
2023/07/05 01:02:45;;;;;;;;;3.00;1.67;;;;;21.79;63.73;100683.59;5032524;28;45930;-73
2023/07/05 01:05:12;;;;;;;;;2.00;2.00;;;;;21.82;64.16;100686.19;5016981;28;45457;-73
2023/07/05 01:07:38;;;;;;;;;3.00;1.00;;;;;21.81;63.97;100682.66;5017236;28;45483;-76
2023/07/05 01:10:04;;;;;;;;;1.33;1.33;;;;;21.82;63.92;100684.38;5017161;28;45409;-75
2023/07/05 01:12:55;;;;;;;;;1.67;1.00;;;;;21.81;64.64;100687.97;5017645;28;45533;-76
2023/07/05 01:15:34;;;;;;;;;3.33;2.67;;;;;21.63;65.55;100686.44;5031054;28;45395;-74
2023/07/05 01:18:24;;;;;;;;;3.00;2.00;;;;;21.56;65.27;100679.44;5024287;28;45762;-74
2023/07/05 01:21:14;;;;;;;;;1.67;1.33;;;;;21.64;64.89;100668.69;5021587;28;45608;-73
2023/07/05 01:23:57;;;;;;;;;3.00;2.00;;;;;21.77;64.46;100680.06;4997085;28;46055;-74
2023/07/05 01:26:56;;;;;;;;;2.67;2.33;;;;;21.82;64.17;100686.19;4997035;28;45526;-73
2023/07/05 01:29:43;;;;;;;;;2.00;2.00;;;;;21.89;64.07;100681.66;4997296;28;45317;-73
2023/07/05 01:32:20;;;;;;;;;3.00;2.67;;;;;21.78;64.82;100672.03;5030171;28;45518;-73
2023/07/05 01:35:05;;;;;;;;;2.00;2.00;;;;;21.75;65.13;100681.88;5018750;28;47050;-73
2023/07/05 01:37:38;;;;;;;;;2.67;1.67;;;;;21.80;65.35;100694.16;5026327;28;45435;-73
2023/07/05 01:40:21;;;;;;;;;2.00;1.67;;;;;21.85;64.76;100692.34;5031274;28;45297;-73
2023/07/05 01:42:57;;;;;;;;;2.67;2.00;;;;;21.84;64.62;100689.69;5036206;28;45283;-74
2023/07/05 01:45:47;;;;;;;;;1.33;1.00;;;;;21.72;64.11;100672.13;5025426;28;46073;-73
2023/07/05 01:48:34;;;;;;;;;1.67;1.67;;;;;21.88;63.73;100686.09;5033141;28;45419;-74
2023/07/05 01:51:27;;;;;;;;;1.00;1.00;;;;;21.94;63.12;100675.34;5027042;28;45399;-74
2023/07/05 01:54:06;;;;;;;;;1.00;1.00;;;;;21.94;63.19;100678.00;5012231;28;45465;-74
2023/07/05 01:57:00;;;;;;;;;2.00;1.00;;;;;21.93;63.60;100686.03;5020152;28;45529;-73
2023/07/05 01:59:34;;;;;;;;;2.00;2.00;;;;;21.88;63.85;100670.13;5018800;28;45361;-73
2023/07/05 02:02:02;;;;;;;;;1.00;1.00;;;;;21.85;64.17;100672.84;5039646;28;45574;-74
2023/07/05 02:04:35;;;;;;;;;2.00;1.00;;;;;21.89;64.03;100673.69;5032216;28;45560;-73
2023/07/05 02:07:03;;;;;;;;;1.33;1.00;;;;;21.89;64.05;100661.28;5032654;28;45482;-73
2023/07/05 02:09:29;;;;;;;;;2.00;2.00;;;;;21.96;64.54;100662.03;5023246;28;45217;-74
2023/07/05 02:11:54;;;;;;;;;1.33;1.00;;;;;21.88;64.32;100663.94;5034463;28;45369;-73
2023/07/05 02:14:20;;;;;;;;;1.33;1.00;;;;;21.91;64.59;100674.56;5028671;28;45205;-74
2023/07/05 02:16:46;;;;;;;;;2.00;1.00;;;;;21.89;63.78;100668.38;5037128;28;46975;-73
2023/07/05 02:19:11;;;;;;;;;1.00;1.00;;;;;21.94;63.35;100664.72;5020858;28;45820;-74
2023/07/05 02:21:37;;;;;;;;;1.67;1.00;;;;;21.97;63.75;100664.69;5024251;28;45710;-73
2023/07/05 02:24:02;;;;;;;;;2.33;2.00;;;;;21.95;63.92;100663.84;5030429;28;45577;-73
2023/07/05 02:26:28;;;;;;;;;2.00;2.00;;;;;22.00;63.17;100663.75;5019756;28;46176;-73
2023/07/05 02:28:54;;;;;;;;;1.00;1.00;;;;;21.97;63.12;100656.72;5020503;28;45664;-73
2023/07/05 02:31:19;;;;;;;;;0.00;0.00;;;;;22.03;63.52;100661.94;5034117;28;45337;-74
2023/07/05 02:33:45;;;;;;;;;1.00;1.00;;;;;21.97;64.02;100661.16;5019777;28;45356;-73
2023/07/05 02:36:13;;;;;;;;;1.67;1.67;;;;;21.85;63.98;100660.44;5018221;28;47051;-73
2023/07/05 02:38:39;;;;;;;;;2.00;1.33;;;;;;;;5036589;28;45636;-74
2023/07/05 02:41:05;;;;;;;;;2.00;2.00;;;;;21.68;64.69;100653.59;5025830;28;45544;-73
2023/07/05 02:43:31;;;;;;;;;4.00;4.00;;;;;21.57;65.58;100649.31;5020029;28;45490;-74
2023/07/05 02:45:56;;;;;;;;;3.00;2.00;;;;;21.54;65.47;100661.75;5033883;28;45365;-73
2023/07/05 02:48:22;;;;;;;;;2.00;2.00;;;;;21.44;65.30;100650.38;5027598;28;45496;-73
2023/07/05 02:50:47;;;;;;;;;2.00;2.00;;;;;21.42;65.50;100655.66;5034562;28;45387;-74
2023/07/05 02:53:13;;;;;;;;;2.00;2.00;;;;;21.45;65.38;100657.47;5027236;28;45617;-74
2023/07/05 02:55:38;;;;;;;;;2.00;2.00;;;;;21.42;65.36;100660.09;5027146;28;45436;-73
2023/07/05 02:58:04;;;;;;;;;1.00;1.00;;;;;21.30;66.14;100658.47;5036703;28;45484;-73
2023/07/05 03:00:30;;;;;;;;;1.00;1.00;;;;;21.24;65.57;100656.78;5036845;28;45471;-73
2023/07/05 03:02:57;;;;;;;;;1.00;1.00;;;;;21.20;65.91;100651.53;5037090;28;45672;-74
2023/07/05 03:05:22;;;;;;;;;1.67;1.67;;;;;21.08;66.12;100647.22;5035203;28;45496;-73
2023/07/05 03:07:48;;;;;;;;;3.00;2.00;;;;;21.11;65.93;100638.34;5024711;28;45425;-74
2023/07/05 03:10:14;;;;;;;;;2.00;2.00;;;;;21.04;66.48;100633.09;5036799;28;45562;-73
2023/07/05 03:12:39;;;;;;;;;2.00;2.00;;;;;21.00;66.65;100633.16;5025342;28;45324;-73
2023/07/05 03:15:06;;;;;;;;;2.00;2.00;;;;;20.97;67.05;100638.50;5033481;28;45573;-73
2023/07/05 03:17:32;;;;;;;;;1.00;1.00;;;;;20.82;67.13;100643.09;5024749;28;45340;-73
2023/07/05 03:19:59;;;;;;;;;4.00;3.00;;;;;20.86;67.37;100633.31;5036679;28;45546;-73
2023/07/05 03:22:26;;;;;;;;;2.00;2.00;;;;;20.83;67.32;100641.31;5038277;28;45474;-73
2023/07/05 03:24:51;;;;;;;;;1.00;1.00;;;;;20.80;67.10;100623.66;5019896;28;45404;-73
2023/07/05 03:27:18;;;;;;;;;1.00;0.67;;;;;20.82;66.81;100640.44;5031725;28;45634;-74
2023/07/05 03:29:43;;;;;;;;;2.67;1.00;;;;;20.77;66.85;100634.31;5017702;28;45514;-73
2023/07/05 03:32:09;;;;;;;;;2.33;2.33;;;;;20.80;66.60;100633.41;5013131;28;45646;-72
2023/07/05 03:34:34;;;;;;;;;2.33;2.00;;;;;20.66;67.19;100638.84;5016436;28;46468;-73
2023/07/05 03:37:00;;;;;;;;;2.00;1.00;;;;;20.56;67.15;100635.38;5024110;28;45446;-73
2023/07/05 03:39:25;;;;;;;;;1.33;1.33;;;;;20.57;67.21;100630.94;5031334;28;45307;-73
2023/07/05 03:41:51;;;;;;;;;1.33;1.33;;;;;20.63;67.24;100638.88;5034473;28;45537;-73
2023/07/05 03:44:21;;;;;;;;;1.33;1.33;;;;;20.57;67.01;100645.09;5023998;28;45571;-72
2023/07/05 03:46:48;;;;;;;;;3.33;1.67;;;;;20.46;67.45;100636.34;5032424;28;45499;-73
2023/07/05 03:49:14;;;;;;;;;2.00;1.67;;;;;20.39;67.22;100631.97;5030912;28;45266;-73
2023/07/05 03:51:40;;;;;;;;;1.67;1.67;;;;;20.49;67.85;100646.06;5026484;28;45375;-73
2023/07/05 03:54:06;;;;;;;;;2.33;1.67;;;;;20.26;68.43;100626.78;5037167;28;45578;-74
2023/07/05 03:56:33;;;;;;;;;1.67;1.00;;;;;20.36;67.94;100645.28;5033857;28;45439;-76
2023/07/05 03:58:59;;;;;;;;;2.67;2.00;;;;;20.32;68.23;100636.47;5020586;28;45314;-72
2023/07/05 04:01:27;;;;;;;;;1.00;1.00;;;;;20.37;67.64;100642.63;5020671;28;45322;-73
2023/07/05 04:03:56;;;;;;;;;4.00;3.33;;;;;20.38;67.51;100648.81;5035288;28;45361;-73
2023/07/05 04:06:24;;;;;;;;;2.33;2.33;;;;;20.26;68.03;100640.06;5034982;28;45517;-73
2023/07/05 04:08:51;;;;;;;;;3.00;2.00;;;;;20.22;68.31;100637.44;5024819;28;45384;-73
2023/07/05 04:11:17;;;;;;;;;3.00;3.00;;;;;20.24;68.05;100646.28;5027163;28;45496;-73
2023/07/05 04:13:45;;;;;;;;;2.33;2.33;;;;;20.18;68.38;100641.91;5019903;28;45629;-73
2023/07/05 04:16:21;;;;;;;;;2.33;1.33;;;;;20.15;68.07;100638.38;5030408;28;45379;-73
2023/07/05 04:18:51;;;;;;;;;1.67;1.67;;;;;20.13;67.91;100632.22;5023228;28;45471;-73
2023/07/05 04:21:16;;;;;;;;;1.33;1.33;;;;;20.32;67.59;100630.31;5016728;28;45480;-74
2023/07/05 04:23:44;;;;;;;;;1.33;0.67;;;;;20.37;67.29;100631.13;5004529;28;45451;-73
2023/07/05 04:26:15;;;;;;;;;1.67;1.67;;;;;20.39;67.17;100624.94;5026570;28;45433;-73
2023/07/05 04:28:43;;;;;;;;;1.67;1.67;;;;;20.40;66.68;100631.97;5029432;28;45408;-74
2023/07/05 04:31:15;;;;;;;;;1.33;1.33;;;;;20.40;66.52;100626.66;5015591;28;45518;-73
2023/07/05 04:33:40;;;;;;;;;2.67;1.67;;;;;20.42;66.98;100624.00;5033951;28;46069;-73
2023/07/05 04:36:06;;;;;;;;;0.50;0.50;;;;;20.32;66.54;100602.00;5019288;28;45706;-73
2023/07/05 04:38:32;;;;;;;;;1.67;1.33;;;;;20.37;66.42;100620.50;5034074;28;45284;-73
2023/07/05 04:41:02;;;;;;;;;1.67;1.67;;;;;20.23;67.09;100621.53;5023051;28;45566;-74
2023/07/05 04:43:28;;;;;;;;;2.67;1.33;;;;;20.16;67.31;100624.25;5037623;28;45319;-73
2023/07/05 04:45:57;;;;;;;;;3.00;2.67;;;;;20.19;67.13;100626.84;5034607;28;45578;-73
2023/07/05 04:48:24;;;;;;;;;2.33;2.00;;;;;20.21;67.08;100633.94;5027888;28;45469;-73
2023/07/05 04:50:52;;;;;;;;;1.33;1.33;;;;;20.27;67.19;100632.97;5034764;28;45871;-74
2023/07/05 04:53:23;;;;;;;;;1.33;1.33;;;;;20.31;67.00;100629.41;5033858;28;47854;-75
2023/07/05 04:55:57;;;;;;;;;2.67;2.33;;;;;20.26;67.36;100632.09;5024408;28;45401;-73
2023/07/05 04:58:24;;;;;;;;;1.00;0.33;;;;;20.20;67.78;100628.63;5034753;28;45580;-73
2023/07/05 05:00:50;;;;;;;;;2.33;2.33;;;;;20.19;67.36;100621.53;5028399;28;45641;-74
2023/07/05 05:03:17;;;;;;;;;3.00;2.33;;;;;20.16;67.37;100610.97;5030803;28;46175;-74
2023/07/05 05:05:48;;;;;;;;;2.33;1.33;;;;;20.30;67.30;100619.69;5027271;28;45444;-73
2023/07/05 05:08:14;;;;;;;;;3.00;2.00;;;;;20.39;67.00;100618.72;5021630;28;45612;-73
2023/07/05 05:10:40;;;;;;;;;3.67;3.00;;;;;20.44;66.86;100622.22;5027598;28;45332;-73
2023/07/05 05:13:07;;;;;;;;;3.00;2.00;;;;;20.53;66.74;100622.16;5029256;28;45924;-72
2023/07/05 05:15:39;;;;;;;;;1.67;1.67;;;;;20.68;66.11;100630.88;5032170;28;45366;-73
2023/07/05 05:18:09;;;;;;;;;2.00;1.67;;;;;20.69;66.28;100622.00;5031336;28;45561;-73
2023/07/05 05:20:37;;;;;;;;;2.33;1.33;;;;;20.81;65.91;100622.75;5031610;28;45477;-72
2023/07/05 05:23:03;;;;;;;;;1.00;1.00;;;;;20.91;65.77;100617.31;5024913;28;45482;-73
2023/07/05 05:25:28;;;;;;;;;2.67;2.67;;;;;21.01;65.59;100613.69;5022827;28;45354;-74
2023/07/05 05:27:54;;;;;;;;;1.00;1.00;;;;;21.05;65.39;100621.59;5037151;28;45391;-74
2023/07/05 05:30:20;;;;;;;;;2.33;1.67;;;;;21.03;65.59;100615.44;5036279;28;46087;-74
2023/07/05 05:32:46;;;;;;;;;2.33;2.00;;;;;21.09;65.61;100622.44;5036127;28;45556;-74
2023/07/05 05:35:12;;;;;;;;;1.00;1.00;;;;;21.10;65.44;100629.50;5036099;28;45367;-75
2023/07/05 05:37:38;;;;;;;;;5.67;4.33;;;;;21.12;66.24;100626.84;5034663;28;45673;-75
2023/07/05 05:40:05;;;;;;;;;2.00;2.00;;;;;21.13;66.04;100617.94;5032399;28;45617;-73
2023/07/05 05:42:31;;;;;;;;;2.00;1.67;;;;;21.14;65.60;100622.38;5017239;28;46306;-73
2023/07/05 05:44:57;;;;;;;;;2.67;2.00;;;;;21.19;65.69;100624.09;5016356;28;45516;-74
2023/07/05 05:47:22;;;;;;;;;3.33;3.00;;;;;21.13;65.98;100613.53;5016353;28;45594;-74
2023/07/05 05:49:48;;;;;;;;;2.00;2.00;;;;;21.25;65.46;100617.81;5015458;28;45292;-73
2023/07/05 05:52:13;;;;;;;;;2.00;2.00;;;;;21.18;66.11;100601.06;5016699;28;46094;-74
2023/07/05 05:54:39;;;;;;;;;2.33;2.33;;;;;21.22;66.65;100613.41;5035959;28;45465;-74
2023/07/05 05:57:04;;;;;;;;;2.00;2.00;;;;;21.34;66.10;100617.69;5035798;28;46693;-74
2023/07/05 05:59:30;;;;;;;;;1.00;1.00;;;;;21.54;65.54;100616.56;5023558;28;45660;-74
2023/07/05 06:01:56;;;;;;;;;2.33;2.00;;;;;21.77;65.08;100621.56;5030734;28;45994;-73
2023/07/05 06:04:21;;;;;;;;;5.00;0.33;;;;;21.95;64.44;100601.78;5034598;28;45387;-74
2023/07/05 06:06:47;;;;;;;;;3.67;2.00;;;;;22.73;62.98;100596.88;5033978;28;45268;-74
2023/07/05 06:09:16;;;;;;;;;1.00;1.00;;;;;26.05;55.28;100600.81;5032986;28;45407;-74
2023/07/05 06:11:42;;;;;;;;;1.33;1.33;;;;;27.95;51.35;100593.78;5030186;28;45524;-74
2023/07/05 06:14:08;;;;;;;;;1.67;1.33;;;;;29.90;46.04;100591.28;5034649;28;45500;-74
2023/07/05 06:16:34;;;;;;;;;0.67;0.67;;;;;31.47;44.63;100597.41;5035272;28;45492;-74
2023/07/05 06:18:59;;;;;;;;;2.00;1.33;;;;;32.32;42.46;100611.44;5017915;28;45494;-75
2023/07/05 06:21:25;;;;;;;;;2.00;2.00;;;;;33.07;39.91;100592.44;5028288;28;45706;-74
2023/07/05 06:23:51;;;;;;;;;4.00;2.00;;;;;33.96;38.04;100600.22;5025814;28;45280;-74
2023/07/05 06:26:18;;;;;;;;;2.00;2.00;;;;;33.89;39.64;100609.75;5017175;28;45362;-74
2023/07/05 06:28:43;;;;;;;;;2.33;2.00;;;;;34.43;35.44;100609.69;5031590;28;45432;-74
2023/07/05 06:31:10;;;;;;;;;2.33;2.00;;;;;33.53;38.06;100611.19;5015630;28;45458;-74
2023/07/05 06:33:36;;;;;;;;;3.33;3.00;;;;;33.96;37.52;100613.75;5015693;28;45562;-74
2023/07/05 06:36:02;;;;;;;;;3.00;2.67;;;;;35.50;34.49;100610.34;5018845;28;45414;-74
2023/07/05 06:38:29;;;;;;;;;27.33;22.33;;;;;36.44;33.97;100624.06;5019926;28;45416;-74
2023/07/05 06:40:56;;;;;;;;;2.33;1.67;;;;;37.27;32.05;100615.81;5032233;28;46424;-74
2023/07/05 06:43:22;;;;;;;;;3.00;2.00;;;;;37.29;31.17;100613.84;5019902;28;45554;-74
2023/07/05 06:45:57;;;;;;;;;1.67;0.67;;;;;37.97;31.90;100614.56;5031581;28;45395;-74
2023/07/05 06:48:23;;;;;;;;;0.00;0.00;;;;;39.23;29.75;100614.59;5018753;28;45518;-74
2023/07/05 06:50:54;;;;;;;;;0.00;0.00;;;;;39.29;30.27;100627.69;5024604;28;45365;-75
2023/07/05 06:53:19;;;;;;;;;0.00;0.00;;;;;39.03;28.27;100624.56;5035431;28;46370;-74
2023/07/05 06:55:49;;;;;;;;;0.33;0.33;;;;;39.45;28.26;100619.00;5020189;28;45870;-72
2023/07/05 06:58:16;;;;;;;;;1.67;1.00;;;;;39.91;27.62;100613.94;5018552;28;45591;-72
2023/07/05 07:00:42;;;;;;;;;12.33;12.33;;;;;39.56;27.24;100612.56;5020339;28;45568;-73
2023/07/05 07:03:08;;;;;;;;;2.67;2.67;;;;;39.90;27.11;100614.97;5018468;28;45447;-72
2023/07/05 07:05:33;;;;;;;;;1.00;0.00;;;;;40.76;26.10;100620.53;5031584;28;45513;-72
2023/07/05 07:07:59;;;;;;;;;0.00;0.00;;;;;41.34;25.73;100614.84;5020475;28;45858;-70
2023/07/05 07:10:25;;;;;;;;;1.67;1.00;;;;;41.43;24.94;100618.56;5024526;28;46133;-72
2023/07/05 07:12:50;;;;;;;;;0.33;0.33;;;;;42.69;23.66;100624.94;5019366;28;45666;-72
2023/07/05 07:15:16;;;;;;;;;0.00;0.00;;;;;43.25;23.66;100622.69;5016920;28;45376;-72
2023/07/05 07:17:41;;;;;;;;;1.00;0.67;;;;;42.27;25.03;100617.41;5020603;28;45364;-72
2023/07/05 07:20:08;;;;;;;;;1.00;1.00;;;;;40.56;27.40;100604.13;5034265;28;46066;-72
2023/07/05 07:22:34;;;;;;;;;0.00;0.00;;;;;39.71;26.35;100608.41;5025535;28;45675;-73
2023/07/05 07:25:00;;;;;;;;;1.00;0.00;;;;;38.94;27.83;100617.19;5018404;28;45462;-73
2023/07/05 07:27:25;;;;;;;;;0.00;0.00;;;;;38.60;28.30;100620.16;5020411;28;45489;-73
2023/07/05 07:29:54;;;;;;;;;10.33;9.67;;;;;39.08;28.09;100627.78;5018259;28;46112;-73
2023/07/05 07:32:20;;;;;;;;;19.33;19.33;;;;;39.24;27.68;100620.94;5031909;28;45646;-73
2023/07/05 07:34:45;;;;;;;;;10.33;10.00;;;;;40.21;26.88;100618.41;5028914;28;45301;-73
2023/07/05 07:37:11;;;;;;;;;5.67;4.00;;;;;40.60;26.26;100612.06;5018526;28;45479;-73
2023/07/05 07:39:36;;;;;;;;;1.67;1.67;;;;;39.80;26.53;100611.31;5023475;28;46064;-73
2023/07/05 07:42:02;;;;;;;;;3.67;2.67;;;;;39.30;27.13;100607.59;5023339;28;45593;-73
2023/07/05 07:44:28;;;;;;;;;3.00;1.00;;;;;39.44;27.97;100619.16;5033669;28;45553;-73
2023/07/05 07:46:53;;;;;;;;;0.67;0.67;;;;;40.49;26.74;100613.97;5034129;28;45483;-73
2023/07/05 07:49:20;;;;;;;;;0.67;0.00;;;;;41.13;26.13;100597.78;5016930;28;47752;-72
2023/07/05 07:51:45;;;;;;;;;1.00;0.67;;;;;41.17;26.01;100607.41;5028662;28;45455;-73
2023/07/05 07:54:16;;;;;;;;;0.00;0.00;;;;;41.03;25.52;100622.47;5037640;28;45469;-73
2023/07/05 07:56:43;;;;;;;;;0.00;0.00;;;;;40.68;26.75;100614.91;5037281;28;45461;-72
2023/07/05 07:59:09;;;;;;;;;0.33;0.33;;;;;40.92;26.13;100608.97;5029723;28;46212;-72
2023/07/05 08:01:37;;;;;;;;;0.67;0.67;;;;;41.85;24.93;100596.06;5017575;28;45950;-72
2023/07/05 08:04:05;;;;;;;;;2.67;2.00;;;;;42.58;24.68;100618.84;5032732;28;45604;-72
2023/07/05 08:06:32;;;;;;;;;1.33;1.33;;;;;43.61;23.37;100614.25;5002183;28;45505;-72
2023/07/05 08:08:57;;;;;;;;;1.33;1.33;;;;;44.50;21.27;100595.28;5024128;28;46257;-72
2023/07/05 08:11:23;;;;;;;;;0.33;0.33;;;;;44.53;21.93;100611.50;5035886;28;45347;-73
2023/07/05 08:13:49;;;;;;;;;0.00;0.00;;;;;44.52;21.00;100618.03;5030976;28;45419;-72
2023/07/05 08:16:15;;;;;;;;;1.33;0.67;;;;;44.88;21.33;100597.47;5028001;28;45540;-73
2023/07/05 08:18:41;;;;;;;;;1.00;0.67;;;;;45.69;21.52;100606.47;5030685;28;45356;-72
2023/07/05 08:21:06;;;;;;;;;0.67;0.67;;;;;46.12;20.13;100602.16;5017007;28;45531;-72
2023/07/05 08:23:32;;;;;;;;;1.33;1.00;;;;;46.30;21.04;100584.41;5027029;28;45504;-72
2023/07/05 08:26:00;;;;;;;;;0.00;0.00;;;;;45.63;20.39;100596.97;5006552;28;45613;-72
2023/07/05 08:28:27;;;;;;;;;1.00;0.33;;;;;45.18;21.63;100591.13;5024040;28;46080;-72
2023/07/05 08:30:59;;;;;;;;;0.33;0.33;;;;;45.55;20.91;100600.66;5032815;28;45371;-72
2023/07/05 08:33:29;;;;;;;;;0.00;0.00;;;;;45.74;21.02;100609.50;5023577;28;45308;-73
2023/07/05 08:36:14;;;;;;;;;0.67;0.67;;;;;45.79;20.28;100598.81;5025821;28;45406;-73
2023/07/05 08:38:43;;;;;;;;;0.33;0.33;;;;;45.09;21.05;100607.91;5018122;28;46125;-72
2023/07/05 08:41:30;;;;;;;;;0.33;0.00;;;;;44.31;21.05;100604.75;5028938;28;45517;-72
2023/07/05 08:44:22;;;;;;;;;0.67;0.67;;;;;43.54;21.33;100606.88;5016779;28;45308;-72
2023/07/05 08:47:02;;;;;;;;;0.67;0.33;;;;;43.67;21.36;100605.38;5000832;28;45345;-72
2023/07/05 08:49:40;;;;;;;;;3.00;3.00;;;;;43.88;22.78;100595.78;5016968;28;46168;-72
2023/07/05 08:52:23;;;;;;;;;1.00;0.00;;;;;43.20;23.05;100588.50;5016838;28;45497;-72
2023/07/05 08:54:56;;;;;;;;;0.67;0.67;;;;;42.42;23.56;100589.38;5035990;28;45453;-72
2023/07/05 08:57:33;;;;;;;;;0.67;0.67;;;;;43.65;22.86;100590.03;5032417;28;45525;-73
2023/07/05 09:00:11;;;;;;;;;1.33;1.33;;;;;44.51;21.85;100598.91;5024238;28;45711;-73
2023/07/05 09:02:38;;;;;;;;;0.67;0.00;;;;;44.54;21.79;100607.69;5035773;28;45437;-72
2023/07/05 09:05:31;;;;;;;;;2.00;2.00;;;;;44.35;21.72;100603.38;5019620;28;45335;-72
2023/07/05 09:08:21;;;;;;;;;3.00;3.00;;;;;44.41;20.76;100597.19;5023760;28;45630;-73
2023/07/05 09:11:05;;;;;;;;;1.00;1.00;;;;;44.32;20.62;100603.72;5027242;28;45320;-73
2023/07/05 09:13:33;;;;;;;;;2.00;1.00;;;;;43.86;22.04;100597.84;5032859;28;45574;-73
2023/07/05 09:16:14;;;;;;;;;2.33;2.33;;;;;43.61;22.16;100599.66;5035993;28;45174;-73
2023/07/05 09:18:51;;;;;;;;;2.00;1.33;;;;;42.82;22.80;100605.28;5024128;28;45296;-73
2023/07/05 09:21:42;;;;;;;;;1.33;1.33;;;;;41.29;23.47;100605.38;5015695;28;45966;-73
2023/07/05 09:24:23;;;;;;;;;2.33;2.00;;;;;41.29;23.92;100603.47;5023839;28;45487;-72
2023/07/05 09:27:05;;;;;;;;;4.00;4.00;;;;;39.90;25.90;100602.13;5031123;28;45448;-73
2023/07/05 09:29:33;;;;;;;;;3.33;2.67;;;;;39.22;26.58;100601.06;5016354;28;45331;-75
2023/07/05 09:32:06;;;;;;;;;3.33;2.67;;;;;38.88;27.30;100594.00;5028747;28;45577;-73
2023/07/05 09:34:56;;;;;;;;;1.67;1.33;;;;;38.29;27.47;100586.44;5021526;28;45446;-74
2023/07/05 09:37:31;;;;;;;;;2.33;2.33;;;;;37.95;28.18;100578.41;5034559;28;45937;-74
2023/07/05 09:40:21;;;;;;;;;1.33;1.00;;;;;37.91;27.84;100583.22;5032005;28;45431;-74
2023/07/05 09:42:59;;;;;;;;;1.33;0.67;;;;;37.69;28.10;100581.47;5016112;28;46320;-74
2023/07/05 09:45:26;;;;;;;;;0.33;0.33;;;;;37.32;28.67;100565.41;5016160;28;45446;-73
2023/07/05 09:47:59;;;;;;;;;1.00;1.00;;;;;36.96;29.14;100581.00;5016591;28;45370;-74
2023/07/05 09:50:25;;;;;;;;;1.00;1.00;;;;;36.73;29.80;100587.41;5017208;28;45281;-74
2023/07/05 09:52:58;;;;;;;;;2.00;0.67;;;;;36.90;29.39;100596.97;5014988;28;47787;-74
2023/07/05 09:55:27;;;;;;;;;1.00;0.33;;;;;36.34;29.81;100598.56;5016842;28;45494;-74
2023/07/05 09:57:53;;;;;;;;;3.00;1.67;;;;;36.05;30.55;100606.22;5022854;28;45732;-74
2023/07/05 10:00:23;;;;;;;;;0.33;0.33;;;;;35.66;31.28;100602.81;5025035;28;45700;-74
2023/07/05 10:02:51;;;;;;;;;2.00;1.00;;;;;35.36;31.76;100597.78;5015597;28;45981;-74
2023/07/05 10:05:25;;;;;;;;;1.67;1.67;;;;;34.75;32.47;100598.47;5030963;28;45490;-74
2023/07/05 10:07:59;;;;;;;;;2.00;1.67;;;;;34.17;33.13;100597.94;5015543;28;45554;-73
2023/07/05 10:10:35;;;;;;;;;0.67;0.67;;;;;33.81;34.17;100599.41;5021948;28;45494;-74
2023/07/05 10:13:13;;;;;;;;;1.00;0.00;;;;;33.51;34.65;100606.84;5018654;28;47887;-74
2023/07/05 10:15:50;;;;;;;;;1.67;1.67;;;;;33.02;35.34;100619.78;5016595;28;45442;-74
2023/07/05 10:18:31;;;;;;;;;6.33;4.33;;;;;32.68;35.85;100630.00;5031885;28;45552;-74
2023/07/05 10:21:01;;;;;;;;;1.00;1.00;;;;;32.07;36.11;100595.81;5020146;28;46089;-73
2023/07/05 10:23:30;;;;;;;;;2.33;1.67;;;;;32.23;36.20;100622.78;5024588;28;45451;-74
2023/07/05 10:26:03;;;;;;;;;0.33;0.33;;;;;32.28;35.73;100618.00;5038340;28;45528;-74
2023/07/05 10:28:32;;;;;;;;;0.67;0.67;;;;;33.11;35.38;100622.91;5028076;28;45503;-73
2023/07/05 10:31:00;;;;;;;;;2.00;1.00;;;;;33.70;34.19;100626.34;5033581;28;45617;-73
2023/07/05 10:33:28;;;;;;;;;1.67;0.67;;;;;33.96;33.83;100629.16;5038001;28;46153;-75
2023/07/05 10:36:03;;;;;;;;;0.67;0.33;;;;;35.05;33.05;100633.41;5030399;28;45526;-74
2023/07/05 10:38:44;;;;;;;;;1.00;1.00;;;;;35.79;31.94;100619.06;5022591;28;45502;-74
2023/07/05 10:41:19;;;;;;;;;1.00;0.00;;;;;36.66;31.02;100637.91;5032545;28;45499;-74
2023/07/05 10:43:52;;;;;;;;;9.33;8.33;;;;;36.76;30.40;100638.91;5036632;28;46246;-74
2023/07/05 10:46:22;;;;;;;;;2.67;2.33;;;;;36.77;30.33;100625.19;5025391;28;45713;-74
2023/07/05 10:48:53;;;;;;;;;1.00;0.00;;;;;36.90;30.97;100630.50;5019700;28;45541;-74
2023/07/05 10:51:26;;;;;;;;;0.67;0.00;;;;;36.98;30.78;100630.75;5019334;28;45486;-74
2023/07/05 10:54:03;;;;;;;;;0.00;0.00;;;;;36.99;30.76;100608.00;5027453;28;46775;-74
2023/07/05 10:56:32;;;;;;;;;0.00;0.00;;;;;37.33;30.61;100616.19;5021163;28;45283;-74
2023/07/05 10:59:12;;;;;;;;;1.00;1.00;;;;;37.80;29.96;100619.59;5002650;28;45531;-74
2023/07/05 11:01:45;;;;;;;;;1.00;1.00;;;;;37.96;29.45;100612.84;5017100;28;45565;-74
2023/07/05 11:04:16;;;;;;;;;0.67;0.67;;;;;37.54;30.66;100618.97;5017164;28;46883;-74
2023/07/05 11:06:44;;;;;;;;;1.00;1.00;;;;;37.10;30.88;100619.88;5002884;28;45484;-74
2023/07/05 11:09:13;;;;;;;;;0.00;0.00;;;;;36.77;31.25;100619.75;5018890;28;45469;-74
2023/07/05 11:11:51;;;;;;;;;1.67;1.67;;;;;36.68;31.54;100635.91;5019234;28;45355;-75
2023/07/05 11:14:17;;;;;;;;;2.00;1.00;;;;;36.45;32.00;100619.53;5026605;28;46110;-74
2023/07/05 11:16:46;;;;;;;;;0.33;0.00;;;;;36.31;32.06;100631.47;5037883;28;45488;-74
2023/07/05 11:19:26;;;;;;;;;0.67;0.00;;;;;36.18;32.40;100617.94;5027058;28;45491;-74
2023/07/05 11:21:52;;;;;;;;;1.00;1.00;;;;;35.61;33.07;100615.84;5032702;28;45438;-74
2023/07/05 11:24:36;;;;;;;;;1.00;1.00;;;;;34.41;33.80;100617.06;5020346;28;46202;-74
2023/07/05 11:27:25;;;;;;;;;2.00;2.00;;;;;33.96;35.15;100608.34;5036518;28;45510;-74
2023/07/05 11:29:54;;;;;;;;;1.00;1.00;;;;;33.83;35.00;100621.84;5034194;28;45532;-74
2023/07/05 11:32:47;;;;;;;;;1.67;1.67;;;;;33.73;35.43;100623.44;5028053;28;45719;-74
2023/07/05 11:35:42;;;;;;;;;1.00;1.00;;;;;34.21;35.48;100629.28;5022778;28;46801;-74
2023/07/05 11:38:08;;;;;;;;;1.67;1.00;;;;;34.79;34.73;100621.69;5012987;28;45435;-74
2023/07/05 11:41:39;;;;;;;;;1.67;1.67;;;;;34.49;34.56;100627.38;5023393;28;45478;-74